createdAt,value
2022-11-01T00:05:18.315Z,98555.34
2022-11-01T00:10:40.099Z,98548.84
2022-11-01T00:16:01.931Z,98543.28
2022-11-01T00:21:24.051Z,98535.63
2022-11-01T00:26:45.991Z,98530.78
2022-11-01T00:32:08.922Z,98534.56
2022-11-01T00:37:30.657Z,98542.66
2022-11-01T00:42:52.524Z,98541.72
2022-11-01T00:48:14.232Z,98547.91
2022-11-01T00:53:36.086Z,98547.81
2022-11-01T00:58:57.823Z,98552.84
2022-11-01T01:04:19.656Z,98544.66
2022-11-01T01:09:41.397Z,98547.41
2022-11-01T01:15:03.889Z,98546.34
2022-11-01T01:20:25.871Z,98542.88
2022-11-01T01:25:47.599Z,98538.06
2022-11-01T01:31:10.255Z,98541.09
2022-11-01T01:36:31.963Z,98517.78
2022-11-01T01:41:56.830Z,98533.31
2022-11-01T01:47:26.208Z,98520.94
2022-11-01T01:53:05.897Z,98521.53
2022-11-01T01:58:31.522Z,98517.34
2022-11-01T02:03:53.319Z,98519.47
2022-11-01T02:09:16.085Z,98537.63
2022-11-01T02:14:39.722Z,98531.31
2022-11-01T02:20:17.826Z,98524.50
2022-11-01T02:26:10.572Z,98520.88
2022-11-01T02:31:50.823Z,98527.31
2022-11-01T02:37:42.437Z,98526.34
2022-11-01T02:43:12.991Z,98529.31
2022-11-01T02:48:35.102Z,98533.41
2022-11-01T02:54:00.984Z,98534.75
2022-11-01T02:59:28.332Z,98555.88
2022-11-01T03:04:50.597Z,98541.91
2022-11-01T03:10:13.017Z,98537.06
2022-11-01T03:15:42.328Z,98550.31
2022-11-01T03:21:17.152Z,98545.69
2022-11-01T03:26:40.973Z,98548.63
2022-11-01T03:32:04.750Z,98562.91
2022-11-01T03:37:28.837Z,98571.34
2022-11-01T03:42:54.602Z,98573.22
2022-11-01T03:48:16.297Z,98582.13
2022-11-01T03:53:37.971Z,98591.72
2022-11-01T03:58:59.819Z,98605.56
2022-11-01T04:04:21.559Z,98609.13
2022-11-01T04:09:43.234Z,98613.31
2022-11-01T04:15:24.449Z,98629.41
2022-11-01T04:20:46.246Z,98626.22
2022-11-01T04:26:11.845Z,98626.09
2022-11-01T04:31:35.905Z,98630.50
2022-11-01T04:36:57.572Z,98630.22
2022-11-01T04:42:19.262Z,98642.91
2022-11-01T04:47:50.763Z,98644.81
2022-11-01T04:53:12.965Z,98663.53
2022-11-01T04:58:39.969Z,98666.69
2022-11-01T05:04:04.926Z,98655.50
2022-11-01T05:09:26.605Z,98673.75
2022-11-01T05:14:50.788Z,98691.97
2022-11-01T05:20:16.184Z,98702.75
2022-11-01T05:25:38.399Z,98692.97
2022-11-01T05:31:00.251Z,98681.94
2022-11-01T05:36:21.942Z,98697.75
2022-11-01T05:41:43.715Z,98687.84
2022-11-01T05:47:05.567Z,98687.72
2022-11-01T05:52:27.265Z,98683.03
2022-11-01T06:03:15.506Z,98686.69
2022-11-01T06:08:37.233Z,98691.97
2022-11-01T06:13:59.312Z,98713.59
2022-11-01T06:19:21.041Z,98704.63
2022-11-01T06:24:42.802Z,98705.84
2022-11-01T06:30:05.406Z,98713.25
2022-11-01T06:35:27.990Z,98708.44
2022-11-01T06:40:49.662Z,98720.91
2022-11-01T06:46:11.359Z,98772.09
2022-11-01T06:51:33.021Z,98776.69
2022-11-01T06:56:54.696Z,98770.34
2022-11-01T07:02:19.506Z,98775.63
2022-11-01T07:07:42.025Z,98777.09
2022-11-01T07:13:05.827Z,98772.19
2022-11-01T07:18:29.859Z,98780.53
2022-11-01T07:23:53.976Z,98779.81
2022-11-01T07:29:15.682Z,98779.81
2022-11-01T07:34:37.333Z,98778.66
2022-11-01T07:40:01.043Z,98792.53
2022-11-01T07:45:22.885Z,98798.50
2022-11-01T07:50:45.527Z,98810.25
2022-11-01T07:56:07.887Z,98820.78
2022-11-01T08:01:30.811Z,98826.22
2022-11-01T08:06:52.589Z,98836.97
2022-11-01T08:12:14.362Z,98842.00
2022-11-01T08:17:36.219Z,98847.09
2022-11-01T08:22:58.022Z,98846.94
2022-11-01T08:28:20.870Z,98848.09
2022-11-01T08:33:42.642Z,98860.06
2022-11-01T08:39:04.391Z,98859.91
2022-11-01T08:44:26.196Z,98863.56
2022-11-01T08:49:47.893Z,98869.69
2022-11-01T08:55:11.197Z,98862.75
2022-11-01T09:00:32.913Z,98867.78
2022-11-01T09:05:57.132Z,98868.72
2022-11-01T09:11:20.561Z,98879.78
2022-11-01T09:16:42.242Z,98884.91
2022-11-01T09:22:03.966Z,98891.03
2022-11-01T09:27:25.672Z,98888.25
2022-11-01T09:32:47.351Z,98888.75
2022-11-01T09:38:09.035Z,98889.72
2022-11-01T09:43:35.035Z,98882.28
2022-11-01T09:48:59.604Z,98881.00
2022-11-01T09:54:24.093Z,98884.38
2022-11-01T10:00:13.258Z,98888.78
2022-11-01T10:05:52.295Z,98894.06
2022-11-01T10:11:37.068Z,98897.22
2022-11-01T10:17:19.840Z,98895.53
2022-11-01T10:22:47.474Z,98898.91
2022-11-01T10:28:19.052Z,98896.03
2022-11-01T10:33:47.706Z,98896.13
2022-11-01T10:39:54.345Z,98900.09
2022-11-01T10:45:16.788Z,98898.19
2022-11-01T10:50:38.902Z,98897.09
2022-11-01T10:56:05.847Z,98907.78
2022-11-01T11:01:31.536Z,98904.91
2022-11-01T11:06:53.466Z,98911.16
2022-11-01T11:12:19.062Z,98903.22
2022-11-01T11:17:44.841Z,98909.59
2022-11-01T11:23:10.511Z,98905.03
2022-11-01T11:28:35.509Z,98914.38
2022-11-01T11:34:02.064Z,98910.91
2022-11-01T11:39:35.606Z,98908.41
2022-11-01T11:45:15.462Z,98903.44
2022-11-01T11:50:38.104Z,98899.03
2022-11-01T11:56:02.901Z,98899.88
2022-11-01T12:01:28.628Z,98906.81
2022-11-01T12:06:50.472Z,98902.25
2022-11-01T12:12:17.997Z,98908.50
2022-11-01T12:17:46.801Z,98912.81
2022-11-01T12:23:26.989Z,98906.59
2022-11-01T12:28:58.505Z,98921.72
2022-11-01T12:34:31.235Z,98919.78
2022-11-01T12:40:18.570Z,98921.34
2022-11-01T12:45:57.040Z,98928.88
2022-11-01T12:51:26.089Z,98917.59
2022-11-01T12:56:47.830Z,98928.88
2022-11-01T13:02:28.443Z,98925.34
2022-11-01T13:08:02.760Z,98927.28
2022-11-01T13:13:24.429Z,98926.56
2022-11-01T13:18:58.220Z,98919.38
2022-11-01T13:24:39.504Z,98926.66
2022-11-01T13:30:01.139Z,98926.91
2022-11-01T13:35:43.281Z,98928.72
2022-11-01T13:41:22.285Z,98930.50
2022-11-01T13:47:11.623Z,98928.59
2022-11-01T13:52:35.981Z,98927.41
2022-11-01T13:57:58.523Z,98927.25
2022-11-01T14:03:26.649Z,98924.72
2022-11-01T14:08:49.295Z,98923.53
2022-11-01T14:14:29.462Z,98930.63
2022-11-01T14:19:56.885Z,98929.84
2022-11-01T14:30:49.354Z,98922.19
2022-11-01T14:36:13.009Z,98930.09
2022-11-01T14:41:40.642Z,98932.38
2022-11-01T14:47:13.963Z,98946.06
2022-11-01T14:52:45.545Z,98956.38
2022-11-01T14:58:08.916Z,98960.66
2022-11-01T15:03:30.624Z,98964.91
2022-11-01T15:08:58.011Z,98960.53
2022-11-01T15:14:34.067Z,98955.34
2022-11-01T15:19:58.495Z,98960.63
2022-11-01T15:25:23.389Z,98956.59
2022-11-01T15:30:55.192Z,98964.00
2022-11-01T15:36:23.381Z,98974.44
2022-11-01T15:41:46.229Z,98979.59
2022-11-01T15:47:20.475Z,98966.47
2022-11-01T15:52:45.788Z,98961.63
2022-11-01T15:58:10.310Z,98977.50
2022-11-01T16:03:40.099Z,98982.38
2022-11-01T16:09:16.197Z,98979.91
2022-11-01T16:14:38.207Z,98989.19
2022-11-01T16:20:04.505Z,98995.72
2022-11-01T16:25:28.940Z,99000.06
2022-11-01T16:30:53.021Z,99002.19
2022-11-01T16:36:17.781Z,99012.56
2022-11-01T16:41:41.011Z,99013.50
2022-11-01T16:47:05.626Z,99023.06
2022-11-01T16:52:27.318Z,99025.16
2022-11-01T16:57:49.008Z,99025.91
2022-11-01T17:03:10.686Z,99036.53
2022-11-01T17:08:33.649Z,99046.22
2022-11-01T17:13:55.351Z,99044.81
2022-11-01T17:19:25.110Z,99048.09
2022-11-01T17:24:47.363Z,99054.41
2022-11-01T17:30:09.508Z,99059.31
2022-11-01T17:35:33.238Z,99069.66
2022-11-01T17:40:56.725Z,99077.19
2022-11-01T17:46:21.794Z,99071.72
2022-11-01T17:51:43.868Z,99078.22
2022-11-01T17:57:05.579Z,99087.63
2022-11-01T18:02:27.511Z,99092.03
2022-11-01T18:07:50.594Z,99091.53
2022-11-01T18:13:37.272Z,99094.44
2022-11-01T18:19:03.934Z,99106.59
2022-11-01T18:24:41.017Z,99106.81
2022-11-01T18:30:12.946Z,99099.50
2022-11-01T18:35:41.320Z,99102.13
2022-11-01T18:41:05.462Z,99103.63
2022-11-01T18:46:39.701Z,99097.47
2022-11-01T18:52:01.789Z,99110.03
2022-11-01T18:57:24.489Z,99105.19
2022-11-01T19:02:46.223Z,99103.06
2022-11-01T19:08:22.259Z,99106.66
2022-11-01T19:13:45.070Z,99101.22
2022-11-01T19:19:14.940Z,99098.84
2022-11-01T19:24:38.465Z,99102.28
2022-11-01T19:30:00.252Z,99104.91
2022-11-01T19:35:22.831Z,99105.75
2022-11-01T19:40:44.663Z,99102.38
2022-11-01T19:46:13.463Z,99103.94
2022-11-01T19:51:35.413Z,99102.22
2022-11-01T19:56:59.439Z,99106.38
2022-11-01T20:02:23.083Z,99108.66
2022-11-01T20:07:44.907Z,99105.66
2022-11-01T20:13:06.867Z,99111.84
2022-11-01T20:18:28.746Z,99115.75
2022-11-01T20:23:50.719Z,99121.63
2022-11-01T20:29:12.615Z,99134.19
2022-11-01T20:34:34.355Z,99136.66
2022-11-01T20:39:56.779Z,99147.50
2022-11-01T20:45:18.802Z,99146.81
2022-11-01T20:50:40.612Z,99139.88
2022-11-01T20:56:03.786Z,99146.25
2022-11-01T21:01:28.078Z,99149.13
2022-11-01T21:06:58.849Z,99147.22
2022-11-01T21:12:39.290Z,99144.66
2022-11-01T21:18:07.201Z,99143.56
2022-11-01T21:24:11.836Z,99151.47
2022-11-01T21:29:47.036Z,99164.69
2022-11-01T21:35:20.703Z,99169.13
2022-11-01T21:40:45.040Z,99176.13
2022-11-01T21:46:15.755Z,99169.94
2022-11-01T21:51:37.582Z,99167.84
2022-11-01T21:56:59.952Z,99168.09
2022-11-01T22:02:21.899Z,99172.88
2022-11-01T22:07:43.908Z,99177.53
2022-11-01T22:13:06.926Z,99178.06
2022-11-01T22:18:28.958Z,99174.69
2022-11-01T22:23:50.838Z,99168.44
2022-11-01T22:29:12.543Z,99174.84
2022-11-01T22:34:34.260Z,99178.88
2022-11-01T22:39:55.940Z,99171.47
2022-11-01T22:45:18.476Z,99183.47
2022-11-01T22:50:40.231Z,99186.16
2022-11-01T22:56:02.093Z,99188.28
2022-11-01T23:01:27.986Z,99190.03
2022-11-01T23:06:53.946Z,99188.22
2022-11-01T23:12:42.434Z,99200.00
2022-11-01T23:18:12.969Z,99202.81
2022-11-01T23:23:41.750Z,99199.75
2022-11-01T23:29:03.449Z,99206.75
2022-11-01T23:34:25.605Z,99208.47
2022-11-01T23:39:47.371Z,99211.81
2022-11-01T23:45:33.888Z,99220.81
2022-11-01T23:50:56.508Z,99216.44
2022-11-01T23:56:19.846Z,99220.06
